createdAt,value
2018-02-02T00:04:59.710Z,2.33
2018-02-02T00:11:03.153Z,2.29
2018-02-02T00:17:06.611Z,2.31
2018-02-02T00:23:10.073Z,2.27
2018-02-02T00:29:13.679Z,2.32
2018-02-02T00:35:17.401Z,2.39
2018-02-02T00:41:21.268Z,2.41
2018-02-02T00:47:24.734Z,2.47
2018-02-02T00:53:28.333Z,2.49
2018-02-02T00:59:32.549Z,2.50
2018-02-02T01:05:36.780Z,2.54
2018-02-02T01:11:40.242Z,2.57
2018-02-02T01:17:43.833Z,2.51
2018-02-02T01:23:47.334Z,2.59
2018-02-02T01:29:51.823Z,2.57
2018-02-02T01:35:55.707Z,2.54
2018-02-02T01:41:59.158Z,2.63
2018-02-02T01:48:20.975Z,2.65
2018-02-02T01:54:25.257Z,2.66
2018-02-02T02:00:28.737Z,2.63
2018-02-02T02:06:32.274Z,2.67
2018-02-02T02:12:36.639Z,2.67
2018-02-02T02:18:40.170Z,2.63
2018-02-02T02:24:43.707Z,2.61
2018-02-02T02:30:47.298Z,2.54
2018-02-02T02:36:51.991Z,2.56
2018-02-02T02:42:55.661Z,2.55
2018-02-02T02:48:59.902Z,2.61
2018-02-02T02:55:03.414Z,2.56
2018-02-02T03:01:06.963Z,2.57
2018-02-02T03:07:10.416Z,2.54
2018-02-02T03:19:24.093Z,2.49
2018-02-02T03:25:27.642Z,2.46
2018-02-02T03:31:31.139Z,2.51
2018-02-02T03:37:35.096Z,2.57
2018-02-02T03:43:38.550Z,2.54
2018-02-02T03:49:42.227Z,2.61
2018-02-02T03:55:45.689Z,2.61
2018-02-02T04:01:50.267Z,2.63
2018-02-02T04:07:54.066Z,2.58
2018-02-02T04:13:57.717Z,2.62
2018-02-02T04:20:01.285Z,2.57
2018-02-02T04:26:04.795Z,2.55
2018-02-02T04:32:08.452Z,2.42
2018-02-02T04:38:12.130Z,2.34
2018-02-02T04:44:16.354Z,2.26
2018-02-02T04:50:20.246Z,2.24
2018-02-02T04:56:24.283Z,2.14
2018-02-02T05:02:28.181Z,2.19
2018-02-02T05:08:32.569Z,2.25
2018-02-02T05:14:36.877Z,2.29
2018-02-02T05:20:40.383Z,2.31
2018-02-02T05:26:44.618Z,2.41
2018-02-02T05:32:48.087Z,2.34
2018-02-02T05:38:51.986Z,2.41
2018-02-02T05:44:55.554Z,2.35
2018-02-02T05:50:59.138Z,2.36
2018-02-02T05:57:02.675Z,2.41
2018-02-02T06:03:06.147Z,2.41
2018-02-02T06:09:09.601Z,2.40
2018-02-02T06:15:13.079Z,2.51
2018-02-02T06:21:16.775Z,2.53
2018-02-02T06:27:20.665Z,2.52
2018-02-02T06:33:24.453Z,2.56
2018-02-02T06:39:27.964Z,2.62
2018-02-02T06:45:31.473Z,2.65
2018-02-02T06:51:35.023Z,2.71
2018-02-02T06:57:39.245Z,2.73
2018-02-02T07:03:42.755Z,2.66
2018-02-02T07:09:46.373Z,2.76
2018-02-02T07:15:49.959Z,2.75
2018-02-02T07:21:54.165Z,2.71
2018-02-02T07:27:57.674Z,2.78
2018-02-02T07:34:01.269Z,2.83
2018-02-02T07:40:04.834Z,2.95
2018-02-02T07:46:09.095Z,2.88
2018-02-02T07:52:13.454Z,2.94
2018-02-02T07:58:16.908Z,2.85
2018-02-02T08:04:20.987Z,2.93
2018-02-02T08:10:24.533Z,2.99
2018-02-02T08:16:28.002Z,3.00
2018-02-02T08:22:32.216Z,3.06
2018-02-02T08:28:35.656Z,3.06
2018-02-02T08:34:39.101Z,3.01
2018-02-02T08:40:42.636Z,3.06
2018-02-02T08:46:46.073Z,3.14
2018-02-02T08:52:50.762Z,3.23
2018-02-02T08:58:54.678Z,3.23
2018-02-02T09:04:58.328Z,3.26
2018-02-02T09:11:01.865Z,3.26
2018-02-02T09:17:05.466Z,3.27
2018-02-02T09:23:09.027Z,3.19
2018-02-02T09:29:12.643Z,3.09
2018-02-02T09:35:16.089Z,3.16
2018-02-02T09:41:19.708Z,3.16
2018-02-02T09:47:24.173Z,3.18
2018-02-02T09:53:27.645Z,3.15
2018-02-02T09:59:31.887Z,3.24
2018-02-02T10:05:35.350Z,3.36
2018-02-02T10:11:38.882Z,3.42
2018-02-02T10:17:42.541Z,3.72
2018-02-02T10:23:46.039Z,3.81
2018-02-02T10:29:51.081Z,3.83
2018-02-02T10:35:54.673Z,3.76
2018-02-02T10:41:58.140Z,3.88
2018-02-02T10:48:02.368Z,4.06
2018-02-02T10:54:05.845Z,4.18
2018-02-02T11:00:09.320Z,4.18
2018-02-02T11:06:13.567Z,4.19
2018-02-02T11:12:17.117Z,4.18
2018-02-02T11:18:21.171Z,4.26
2018-02-02T11:24:25.121Z,4.24
2018-02-02T11:30:28.602Z,4.15
2018-02-02T11:36:32.091Z,4.04
2018-02-02T11:42:36.293Z,4.13
2018-02-02T11:48:40.548Z,4.22
2018-02-02T11:54:44.038Z,4.18
2018-02-02T12:00:47.494Z,4.13
2018-02-02T12:06:50.957Z,4.18
2018-02-02T12:12:54.429Z,4.17
2018-02-02T12:18:58.683Z,4.18
2018-02-02T12:31:48.376Z,4.28
2018-02-02T12:37:52.992Z,4.23
2018-02-02T12:43:56.578Z,4.05
2018-02-02T12:50:07.702Z,4.00
2018-02-02T12:56:11.358Z,4.11
2018-02-02T13:02:14.816Z,4.25
2018-02-02T13:08:18.445Z,4.16
2018-02-02T13:14:22.993Z,4.29
2018-02-02T13:21:30.584Z,4.23
2018-02-02T13:27:35.865Z,4.20
2018-02-02T13:33:40.342Z,4.23
2018-02-02T13:39:44.798Z,4.11
2018-02-02T13:45:49.260Z,4.08
2018-02-02T13:51:54.641Z,4.15
2018-02-02T13:57:59.886Z,4.12
2018-02-02T14:04:04.535Z,4.19
2018-02-02T14:10:09.024Z,4.13
2018-02-02T14:16:13.616Z,4.06
2018-02-02T14:22:18.295Z,4.11
2018-02-02T14:28:24.201Z,4.11
2018-02-02T14:34:28.711Z,4.09
2018-02-02T14:40:33.353Z,4.14
2018-02-02T14:46:37.879Z,4.06
2018-02-02T14:52:42.348Z,4.07
2018-02-02T14:58:46.810Z,4.09
2018-02-02T15:04:51.500Z,4.04
2018-02-02T15:10:56.098Z,3.94
2018-02-02T15:17:00.574Z,3.90
2018-02-02T15:23:22.889Z,3.86
2018-02-02T15:29:27.573Z,3.80
2018-02-02T15:35:32.781Z,3.79
2018-02-02T15:41:38.003Z,3.74
2018-02-02T15:47:43.237Z,3.76
2018-02-02T15:53:47.729Z,3.72
2018-02-02T15:59:53.013Z,3.74
2018-02-02T16:05:57.560Z,3.72
2018-02-02T16:12:02.013Z,3.74
2018-02-02T16:18:06.573Z,3.71
2018-02-02T16:24:11.860Z,3.67
2018-02-02T16:30:17.448Z,3.66
2018-02-02T16:36:23.588Z,3.68
2018-02-02T16:42:28.874Z,3.67
2018-02-02T16:48:33.385Z,3.67
2018-02-02T16:54:37.930Z,3.66
2018-02-02T17:00:43.168Z,3.69
2018-02-02T17:06:47.635Z,3.71
2018-02-02T17:12:52.425Z,3.71
2018-02-02T17:18:57.253Z,3.73
2018-02-02T17:25:01.778Z,3.71
2018-02-02T17:31:06.286Z,3.73
2018-02-02T17:37:10.961Z,3.71
2018-02-02T17:43:15.491Z,3.73
2018-02-02T17:49:21.314Z,3.72
2018-02-02T17:55:26.206Z,3.74
2018-02-02T18:01:30.634Z,3.77
2018-02-02T18:07:35.216Z,3.66
2018-02-02T18:13:39.699Z,3.42
2018-02-02T18:19:44.358Z,3.30
2018-02-02T18:25:48.935Z,3.30
2018-02-02T18:31:53.686Z,3.30
2018-02-02T18:37:58.314Z,3.28
2018-02-02T18:44:02.982Z,3.28
2018-02-02T18:50:07.481Z,3.30
2018-02-02T18:56:12.770Z,3.27
2018-02-02T19:02:17.265Z,3.26
2018-02-02T19:08:22.135Z,3.24
2018-02-02T19:14:27.549Z,3.23
2018-02-02T19:20:32.128Z,3.19
2018-02-02T19:26:36.725Z,3.16
2018-02-02T19:32:42.127Z,3.17
2018-02-02T19:38:47.607Z,3.17
2018-02-02T19:44:52.787Z,3.21
2018-02-02T19:50:57.521Z,3.30
2018-02-02T19:57:01.996Z,3.31
2018-02-02T20:03:06.443Z,3.34
2018-02-02T20:09:10.974Z,3.31
2018-02-02T20:15:17.006Z,3.35
2018-02-02T20:21:26.655Z,3.34
2018-02-02T20:27:31.177Z,3.36
2018-02-02T20:33:35.754Z,3.38
2018-02-02T20:39:40.355Z,3.43
2018-02-02T20:45:44.938Z,3.52
2018-02-02T20:51:49.744Z,3.54
2018-02-02T20:57:54.336Z,3.57
2018-02-02T21:03:59.594Z,3.58
2018-02-02T21:10:04.081Z,3.50
2018-02-02T21:16:09.354Z,3.47
2018-02-02T21:22:13.831Z,3.46
2018-02-02T21:28:18.336Z,3.50
2018-02-02T21:34:23.160Z,3.55
2018-02-02T21:40:27.634Z,3.55
2018-02-02T21:46:32.202Z,3.56
2018-02-02T21:52:36.685Z,3.54
2018-02-02T21:58:41.243Z,3.48
2018-02-02T22:04:46.765Z,3.48
2018-02-02T22:10:52.803Z,3.35
2018-02-02T22:16:57.357Z,3.03
2018-02-02T22:23:01.818Z,2.91
2018-02-02T22:29:06.417Z,2.90
2018-02-02T22:35:10.886Z,2.95
2018-02-02T22:41:15.624Z,2.97
2018-02-02T22:47:22.192Z,2.97
2018-02-02T22:53:27.455Z,3.01
2018-02-02T22:59:33.487Z,3.03
2018-02-02T23:05:38.774Z,3.08
2018-02-02T23:11:43.997Z,3.12
2018-02-02T23:17:48.632Z,3.18
2018-02-02T23:23:55.263Z,3.20
2018-02-02T23:30:01.258Z,3.21
2018-02-02T23:36:05.729Z,3.13
2018-02-02T23:42:10.335Z,3.08
2018-02-02T23:48:15.014Z,3.06
2018-02-02T23:54:20.230Z,3.05
